Time;durP1;ratioP1;P1;durP2;ratioP2;P2;SDS_P1;SDS_P2;PMS_P1;PMS_P2;Temp;Humidity;BMP_temperature;BMP_pressure;BME280_temperature;BME280_humidity;BME280_pressure;Samples;Min_cycle;Max_cycle;Signal;HPM_P1;HPM_P2
2021/06/22 00:00:14;;;;;;;5.28;2.80;;;;;;;18.03;54.95;101438.13;5039963;27;124251;-72
2021/06/22 00:02:43;;;;;;;7.18;2.65;;;;;;;18.01;55.26;101430.19;5027906;27;123334;-72
2021/06/22 00:05:10;;;;;;;6.15;2.80;;;;;;;18.00;55.01;101428.47;5041984;27;120445;-72
2021/06/22 00:07:38;;;;;;;6.82;2.80;;;;;;;17.97;55.32;101434.03;5044686;27;119863;-73
2021/06/22 00:10:06;;;;;;;8.38;3.08;;;;;;;17.95;55.16;101430.59;5044647;27;124487;-72
2021/06/22 00:12:33;;;;;;;6.15;2.83;;;;;;;17.93;55.22;101424.47;5035750;27;123633;-72
2021/06/22 00:15:00;;;;;;;4.85;2.70;;;;;;;17.92;55.38;101425.44;5040140;27;119397;-73
2021/06/22 00:17:27;;;;;;;7.13;2.80;;;;;;;17.92;55.46;101430.81;5043697;27;118283;-73
2021/06/22 00:19:54;;;;;;;6.60;3.40;;;;;;;17.91;55.47;101423.72;5037429;27;123885;-72
2021/06/22 00:22:21;;;;;;;7.82;2.97;;;;;;;17.93;55.49;101432.50;5046874;27;124338;-72
2021/06/22 00:24:48;;;;;;;6.85;3.22;;;;;;;17.92;55.35;101436.16;5038894;27;119990;-72
2021/06/22 00:27:16;;;;;;;6.80;3.50;;;;;;;17.93;55.41;101426.28;5045868;27;118921;-73
2021/06/22 00:29:44;;;;;;;7.05;3.47;;;;;;;17.90;55.28;101430.03;5045085;27;124324;-72
2021/06/22 00:32:11;;;;;;;8.13;3.17;;;;;;;17.88;55.49;101435.50;5031663;27;124792;-73
2021/06/22 00:34:38;;;;;;;8.80;3.35;;;;;;;17.89;55.51;101436.34;5036358;27;119435;-73
2021/06/22 00:37:05;;;;;;;7.18;3.28;;;;;;;17.88;55.66;101446.22;5034887;27;119833;-73
2021/06/22 00:39:32;;;;;;;10.15;2.90;;;;;;;17.88;55.64;101445.38;5041721;27;123301;-72
2021/06/22 00:41:59;;;;;;;8.13;3.28;;;;;;;17.87;55.86;101443.63;5036300;27;124129;-72
2021/06/22 00:44:27;;;;;;;8.07;3.30;;;;;;;17.89;55.91;101442.59;5025770;27;118899;-73
2021/06/22 00:46:54;;;;;;;10.32;3.63;;;;;;;17.87;55.65;101444.50;5040753;27;118069;-73
2021/06/22 00:49:21;;;;;;;10.15;3.55;;;;;;;17.87;55.84;101443.63;5043050;27;124797;-72
2021/06/22 00:51:48;;;;;;;6.75;3.58;;;;;;;17.84;55.54;101441.16;5040159;27;124639;-73
2021/06/22 00:54:15;;;;;;;7.47;3.53;;;;;;;17.82;55.89;101443.03;5040396;27;120355;-72
2021/06/22 00:56:42;;;;;;;8.35;3.35;;;;;;;17.80;56.00;101439.59;5040821;27;119885;-73
2021/06/22 00:59:10;;;;;;;8.48;3.50;;;;;;;17.80;56.05;101437.81;5038038;27;123361;-72
2021/06/22 01:01:40;;;;;;;6.00;3.33;;;;;;;17.79;55.98;101432.53;5021796;27;123258;-72
2021/06/22 01:04:08;;;;;;;5.15;2.90;;;;;;;17.79;55.97;101435.22;5041447;27;120045;-72
2021/06/22 01:06:42;;;;;;;8.80;3.03;;;;;;;17.77;56.05;101439.81;5036327;27;118146;-73
2021/06/22 01:09:14;;;;;;;6.15;3.53;;;;;;;17.77;56.11;101437.16;5035916;27;124466;-72
2021/06/22 01:11:41;;;;;;;8.02;3.50;;;;;;;17.77;56.32;101437.16;5041296;27;124110;-72
2021/06/22 01:14:09;;;;;;;9.07;3.33;;;;;;;17.76;56.16;101435.41;5029193;27;119474;-73
2021/06/22 01:16:36;;;;;;;7.13;2.97;;;;;;;17.78;56.07;101444.22;5040755;27;119076;-73
2021/06/22 01:19:06;;;;;;;7.15;3.38;;;;;;;17.78;56.14;101444.22;5037257;27;124261;-72
2021/06/22 01:21:50;;;;;;;5.93;3.25;;;;;;;17.77;56.07;101442.50;5034086;27;124060;-72
2021/06/22 01:24:24;;;;;;;9.80;3.40;;;;;;;17.76;56.12;101440.78;5033918;27;118626;-72
2021/06/22 01:26:58;;;;;;;8.40;3.25;;;;;;;17.76;56.33;101446.13;5038047;27;118088;-72
2021/06/22 01:29:28;;;;;;;13.15;4.05;;;;;;;17.77;56.33;101447.88;5017074;27;123315;-72
2021/06/22 01:31:58;;;;;;;6.95;3.42;;;;;;;17.78;56.38;101454.94;5028955;27;123664;-73
2021/06/22 01:34:29;;;;;;;7.15;4.03;;;;;;;17.79;56.21;101462.03;5053593;22;123003;-71
2021/06/22 01:36:59;;;;;;;6.63;3.70;;;;;;;17.78;56.32;101454.94;5032532;27;119177;-71
2021/06/22 01:39:34;;;;;;;9.15;4.15;;;;;;;17.77;56.42;101458.59;5033693;27;123530;-72
2021/06/22 01:42:03;;;;;;;7.32;3.53;;;;;;;17.75;56.35;101445.28;5046063;27;123798;-71
2021/06/22 01:44:34;;;;;;;6.72;3.50;;;;;;;17.72;56.38;101437.44;5020121;27;119783;-71
2021/06/22 01:47:04;;;;;;;8.60;4.20;;;;;;;17.70;56.41;101432.16;5018369;27;118793;-72
2021/06/22 01:49:32;;;;;;;10.57;4.32;;;;;;;17.68;56.46;101438.59;5017271;27;124448;-72
2021/06/22 01:52:00;;;;;;;7.45;4.10;;;;;;;17.65;56.63;101445.03;5018516;27;123556;-72
2021/06/22 01:54:27;;;;;;;6.68;3.85;;;;;;;17.60;56.45;101447.13;5018994;27;119623;-72
2021/06/22 01:56:59;;;;;;;7.88;3.72;;;;;;;17.56;56.43;101448.31;4998327;28;117762;-72
2021/06/22 01:59:27;;;;;;;8.48;4.20;;;;;;;17.50;56.62;101451.38;5012672;27;124098;-72
2021/06/22 02:02:03;;;;;;;9.43;4.10;;;;;;;17.41;56.79;101457.34;5021985;27;123337;-71
2021/06/22 02:04:38;;;;;;;9.73;3.97;;;;;;;17.35;56.77;101457.69;5017646;27;118817;-71
2021/06/22 02:07:12;;;;;;;9.07;4.30;;;;;;;17.27;56.73;101452.84;5009585;27;119573;-72
2021/06/22 02:09:45;;;;;;;9.18;4.70;;;;;;;17.21;57.10;101451.41;5017737;27;124488;-72
2021/06/22 02:12:23;;;;;;;9.20;4.13;;;;;;;17.15;57.09;101462.50;5019674;28;123882;-71
2021/06/22 02:14:50;;;;;;;10.15;4.30;;;;;;;17.11;57.24;101463.66;5018865;27;119630;-71
2021/06/22 02:17:19;;;;;;;9.45;4.60;;;;;;;17.07;57.52;101460.31;5021314;27;118639;-71
2021/06/22 02:19:47;;;;;;;9.93;4.50;;;;;;;17.03;57.28;101460.63;5023448;27;122555;-71
2021/06/22 02:22:29;;;;;;;10.80;4.22;;;;;;;16.99;57.36;101456.38;5022390;27;124348;-71
2021/06/22 02:24:57;;;;;;;8.50;4.38;;;;;;;16.95;57.56;101468.25;5028720;27;118882;-71
2021/06/22 02:27:30;;;;;;;9.88;4.45;;;;;;;16.91;57.54;101459.53;5014228;28;116574;-71
2021/06/22 02:30:00;;;;;;;9.45;4.72;;;;;;;16.86;57.66;101457.16;5025859;27;124071;-72
2021/06/22 02:32:32;;;;;;;10.38;4.30;;;;;;;16.83;57.65;101456.50;5017809;28;121814;-71
2021/06/22 02:35:06;;;;;;;9.98;4.40;;;;;;;16.79;57.75;101455.78;5015855;27;120303;-71
2021/06/22 02:37:35;;;;;;;12.30;4.68;;;;;;;16.77;57.90;101452.34;5029209;27;119243;-71
2021/06/22 02:40:04;;;;;;;11.40;4.22;;;;;;;16.72;57.84;101439.25;5023431;27;123587;-72
2021/06/22 02:42:32;;;;;;;9.82;4.60;;;;;;;16.71;57.92;101436.69;5021696;27;123383;-72
2021/06/22 02:45:07;;;;;;;8.65;4.50;;;;;;;16.65;57.76;101437.03;5037562;27;118879;-71
2021/06/22 02:47:35;;;;;;;9.38;4.30;;;;;;;16.61;58.02;101446.22;5023327;27;119000;-72
2021/06/22 02:50:04;;;;;;;7.57;4.35;;;;;;;16.55;58.13;101442.94;5022517;27;123168;-72
2021/06/22 02:52:33;;;;;;;9.98;4.53;;;;;;;16.53;58.15;101450.19;5020421;27;123199;-71
2021/06/22 02:55:03;;;;;;;12.73;4.90;;;;;;;16.52;58.39;101443.16;5025234;27;119791;-71
2021/06/22 02:57:32;;;;;;;8.10;4.60;;;;;;;16.50;58.38;101438.81;5023215;27;118782;-72
2021/06/22 02:59:59;;;;;;;8.95;4.57;;;;;;;16.47;58.28;101445.22;5026554;27;124482;-72
2021/06/22 03:02:28;;;;;;;8.88;4.40;;;;;;;16.45;58.57;101441.78;5025191;28;123307;-72
2021/06/22 03:04:56;;;;;;;9.27;4.60;;;;;;;16.43;58.44;101437.50;5022208;27;118954;-72
2021/06/22 03:07:23;;;;;;;10.65;4.30;;;;;;;16.41;58.61;101437.59;5019678;27;118298;-72
2021/06/22 03:09:51;;;;;;;8.38;4.15;;;;;;;16.39;58.68;101442.16;5022481;27;123659;-72
2021/06/22 03:12:20;;;;;;;12.25;4.60;;;;;;;16.39;58.69;101441.28;5020643;27;123202;-72
2021/06/22 03:15:27;;;;;;;12.52;4.35;;;;;;;16.36;58.52;101447.69;4957136;28;119851;-73
2021/06/22 03:17:54;;;;;;;8.50;4.28;;;;;;;16.35;58.47;101456.69;4963635;28;119244;-72
2021/06/22 03:20:29;;;;;;;11.18;4.35;;;;;;;16.34;58.67;101457.63;4983478;27;126070;-73
2021/06/22 03:22:56;;;;;;;6.93;4.43;;;;;;;16.33;58.70;101455.88;5020940;28;124062;-72
2021/06/22 03:25:23;;;;;;;7.22;3.80;;;;;;;16.33;58.87;101453.19;5024189;27;120548;-72
2021/06/22 03:27:58;;;;;;;8.48;4.35;;;;;;;16.33;58.84;101453.19;5023436;27;119224;-72
2021/06/22 03:30:25;;;;;;;8.20;4.22;;;;;;;16.33;59.03;101463.91;5026513;27;124119;-72
2021/06/22 03:32:52;;;;;;;7.97;4.10;;;;;;;16.33;59.10;101463.91;5021691;27;123067;-72
2021/06/22 03:35:20;;;;;;;12.30;4.80;;;;;;;16.34;59.06;101465.63;5020223;27;119321;-72
2021/06/22 03:37:47;;;;;;;9.75;4.45;;;;;;;16.36;59.28;101469.06;5018513;27;119533;-72
2021/06/22 03:40:16;;;;;;;7.22;3.65;;;;;;;16.37;59.14;101469.94;5024929;27;124410;-72
2021/06/22 03:42:46;;;;;;;10.38;4.28;;;;;;;16.37;59.04;101476.16;5023277;27;124254;-72
2021/06/22 03:45:14;;;;;;;10.30;3.90;;;;;;;16.39;59.09;101468.91;5019960;28;118869;-71
2021/06/22 03:47:47;;;;;;;9.85;4.18;;;;;;;16.39;59.13;101474.25;5005504;27;117427;-72
2021/06/22 03:50:15;;;;;;;9.90;4.45;;;;;;;16.38;59.21;101483.22;5025065;27;124523;-72
2021/06/22 03:52:42;;;;;;;8.48;4.30;;;;;;;16.38;59.34;101482.34;5021719;27;123983;-72
2021/06/22 03:55:27;;;;;;;9.00;4.70;;;;;;;16.38;59.34;101491.22;5029072;27;119463;-72
2021/06/22 03:58:05;;;;;;;10.82;4.95;;;;;;;16.39;59.24;101484.94;5024703;27;117470;-72
2021/06/22 04:00:38;;;;;;;9.27;4.55;;;;;;;16.40;59.27;101486.66;5017571;28;123808;-72
2021/06/22 04:03:13;;;;;;;8.73;4.15;;;;;;;16.41;59.36;101504.44;5035333;27;125571;-71
2021/06/22 04:05:59;;;;;;;8.57;4.13;;;;;;;16.40;59.36;101492.00;5015778;27;120162;-72
2021/06/22 04:08:29;;;;;;;8.18;4.20;;;;;;;16.41;59.37;101493.72;5022378;27;118608;-73
2021/06/22 04:11:03;;;;;;;8.23;4.38;;;;;;;16.42;59.60;101490.09;5014336;27;124113;-72
2021/06/22 04:13:31;;;;;;;8.63;4.05;;;;;;;16.42;59.35;101490.09;5016149;27;123940;-71
2021/06/22 04:15:59;;;;;;;10.10;4.95;;;;;;;16.45;59.46;101478.38;5009665;27;119575;-71
2021/06/22 04:18:27;;;;;;;9.43;4.07;;;;;;;16.46;59.46;101486.31;5017893;27;119816;-71
2021/06/22 04:20:58;;;;;;;8.07;4.40;;;;;;;16.48;59.47;101489.75;5014595;27;124110;-72
2021/06/22 04:23:32;;;;;;;7.43;4.28;;;;;;;16.51;59.59;101489.53;5020777;27;122762;-71
2021/06/22 04:26:01;;;;;;;8.98;4.00;;;;;;;16.54;59.30;101494.72;5020335;27;119561;-71
2021/06/22 04:28:28;;;;;;;8.98;4.15;;;;;;;16.57;59.31;101487.47;5013662;27;119606;-72
2021/06/22 04:30:55;;;;;;;10.63;3.95;;;;;;;16.58;59.38;101495.41;5012660;27;123626;-70
2021/06/22 04:33:24;;;;;;;6.25;3.92;;;;;;;16.60;59.46;101498.00;5015504;27;123672;-70
2021/06/22 04:35:51;;;;;;;8.93;3.78;;;;;;;16.61;59.43;101494.34;5022103;27;118106;-71
2021/06/22 04:38:18;;;;;;;5.80;3.60;;;;;;;16.63;59.48;101500.47;5021722;27;119079;-71
2021/06/22 04:40:45;;;;;;;8.82;3.85;;;;;;;16.66;59.24;101502.97;5017756;27;123945;-71
2021/06/22 04:43:12;;;;;;;8.63;3.55;;;;;;;16.67;59.32;101504.66;5015146;27;122914;-71
2021/06/22 04:45:39;;;;;;;7.63;3.70;;;;;;;16.69;59.21;101502.78;5020926;27;119465;-71
2021/06/22 04:48:07;;;;;;;6.70;3.58;;;;;;;16.69;59.28;101502.78;5017743;27;119624;-71
2021/06/22 04:50:34;;;;;;;5.53;3.38;;;;;;;16.70;59.21;101504.50;5019930;27;123743;-71
2021/06/22 04:53:01;;;;;;;9.40;3.88;;;;;;;16.71;59.30;101507.09;5029085;27;124110;-71
2021/06/22 04:55:28;;;;;;;10.32;3.97;;;;;;;16.72;59.20;101507.94;5023436;27;119279;-71
2021/06/22 04:57:59;;;;;;;7.82;3.97;;;;;;;16.75;59.23;101507.75;5020765;27;118680;-71
2021/06/22 05:00:28;;;;;;;8.68;4.15;;;;;;;16.78;59.17;101520.94;5015170;28;124214;-71
2021/06/22 05:02:55;;;;;;;7.20;3.70;;;;;;;16.80;59.07;101521.72;5022059;27;124138;-72
2021/06/22 05:05:22;;;;;;;8.82;3.95;;;;;;;16.81;59.23;101528.78;5028273;27;120175;-71
2021/06/22 05:07:50;;;;;;;5.70;3.50;;;;;;;16.83;58.91;101526.06;5020711;27;119012;-71
2021/06/22 05:10:17;;;;;;;8.70;3.78;;;;;;;16.85;58.87;101530.34;5017313;27;123658;-71
2021/06/22 05:12:45;;;;;;;6.88;3.45;;;;;;;16.87;59.04;101527.59;5001057;28;123307;-71
2021/06/22 05:15:18;;;;;;;6.82;4.13;;;;;;;16.91;59.13;101530.00;5015168;27;119432;-71
2021/06/22 05:17:46;;;;;;;6.97;3.53;;;;;;;16.95;58.86;101529.78;5022141;27;119497;-71
2021/06/22 05:20:14;;;;;;;10.13;3.78;;;;;;;16.97;59.00;101533.22;5018756;27;123821;-71
2021/06/22 05:22:41;;;;;;;7.22;3.78;;;;;;;16.97;58.89;101533.22;4996830;28;123307;-71
2021/06/22 05:25:08;;;;;;;8.35;3.60;;;;;;;17.01;58.92;101538.31;5019033;28;119896;-71
2021/06/22 05:27:35;;;;;;;9.13;3.97;;;;;;;17.05;58.87;101536.31;5017845;28;118100;-72
2021/06/22 05:30:03;;;;;;;8.32;3.63;;;;;;;17.11;58.98;101541.28;5016789;27;124428;-72
2021/06/22 05:32:30;;;;;;;7.80;3.83;;;;;;;17.16;59.03;101533.84;5022713;27;123875;-72
2021/06/22 05:34:58;;;;;;;7.97;3.60;;;;;;;17.22;58.89;101533.47;5018308;27;117447;-72
2021/06/22 05:37:25;;;;;;;7.00;3.75;;;;;;;17.27;58.50;101542.06;5021375;27;119036;-72
2021/06/22 05:39:52;;;;;;;6.18;3.55;;;;;;;17.32;58.60;101533.75;5018212;27;124125;-72
2021/06/22 05:42:19;;;;;;;7.05;3.47;;;;;;;17.37;58.76;101541.50;5019927;27;124589;-72
2021/06/22 05:44:46;;;;;;;7.95;3.55;;;;;;;17.43;58.57;101541.09;5015170;27;119180;-73
2021/06/22 05:47:14;;;;;;;5.60;3.50;;;;;;;17.49;58.44;101532.69;5017494;27;118570;-72
2021/06/22 05:49:41;;;;;;;7.55;3.30;;;;;;;17.55;58.20;101529.59;5024213;27;124316;-72
2021/06/22 05:52:08;;;;;;;6.72;3.53;;;;;;;17.60;57.94;101532.84;5011059;28;123616;-72
2021/06/22 05:54:37;;;;;;;10.23;3.97;;;;;;;17.63;57.94;101537.16;5028382;27;120620;-72
2021/06/22 05:57:06;;;;;;;9.00;3.63;;;;;;;17.66;57.60;101539.66;5022694;27;121268;-72
2021/06/22 05:59:33;;;;;;;6.25;3.38;;;;;;;17.69;57.36;101536.78;5016740;27;124401;-70
2021/06/22 06:02:01;;;;;;;9.50;3.45;;;;;;;17.70;57.13;101539.34;5019946;27;124327;-73
2021/06/22 06:04:29;;;;;;;6.88;3.45;;;;;;;17.71;57.12;101545.56;5017257;27;118152;-71
2021/06/22 06:06:57;;;;;;;10.20;3.95;;;;;;;17.74;57.00;101547.19;5027627;27;119609;-71
2021/06/22 06:09:24;;;;;;;6.38;3.75;;;;;;;17.76;56.89;101553.31;5018274;27;123741;-71
2021/06/22 06:11:52;;;;;;;10.00;4.07;;;;;;;17.79;56.94;101558.47;5025900;27;123251;-72
2021/06/22 06:14:20;;;;;;;8.27;3.67;;;;;;;17.84;56.88;101556.38;5017336;27;119182;-72
2021/06/22 06:16:48;;;;;;;8.10;3.78;;;;;;;17.88;56.87;101561.47;5020219;27;118935;-71
2021/06/22 06:19:15;;;;;;;9.95;4.38;;;;;;;17.93;56.54;101561.16;5017168;27;124098;-72
2021/06/22 06:21:43;;;;;;;7.95;4.47;;;;;;;17.97;56.66;101557.34;5014500;27;123758;-71
2021/06/22 06:24:10;;;;;;;11.68;4.78;;;;;;;18.00;56.33;101557.13;5024469;27;119138;-71
2021/06/22 06:26:47;;;;;;;10.65;4.43;;;;;;;18.03;56.37;101556.94;5019079;27;117421;-71
2021/06/22 06:29:42;;;;;;;10.65;4.45;;;;;;;18.06;56.13;101562.09;5010568;27;124415;-71
2021/06/22 06:32:04;;;;;;;8.50;4.18;;;;;;;18.09;56.27;101567.25;5018904;27;124505;-71
2021/06/22 06:34:31;;;;;;;9.05;4.80;;;;;;;18.13;56.33;101561.69;5020543;27;119525;-71
2021/06/22 06:36:58;;;;;;;8.30;4.70;;;;;;;18.18;56.21;101559.56;5020111;27;119297;-72
2021/06/22 06:39:25;;;;;;;9.85;4.28;;;;;;;18.24;56.13;101561.84;5018695;27;123885;-71
2021/06/22 06:41:52;;;;;;;9.75;4.63;;;;;;;18.28;55.91;101571.41;5022183;27;122912;-71
2021/06/22 06:44:19;;;;;;;12.35;5.30;;;;;;;18.32;55.91;101567.56;5024527;27;120378;-71
2021/06/22 06:46:47;;;;;;;13.70;5.47;;;;;;;18.35;55.79;101575.41;5014371;27;120289;-71
2021/06/22 06:49:14;;;;;;;8.20;4.78;;;;;;;18.36;55.35;101574.44;5024340;27;124225;-71
2021/06/22 06:51:41;;;;;;;10.57;5.10;;;;;;;18.35;55.33;101572.72;5004795;28;123419;-71
2021/06/22 06:54:08;;;;;;;9.77;5.20;;;;;;;18.35;55.40;101588.81;5016571;27;119011;-72
2021/06/22 06:56:35;;;;;;;7.93;4.95;;;;;;;18.36;55.35;101579.78;5024652;27;119263;-72
2021/06/22 06:59:02;;;;;;;12.57;5.55;;;;;;;18.37;54.99;101586.88;5017015;27;123914;-71
2021/06/22 07:01:30;;;;;;;8.48;4.95;;;;;;;18.39;55.10;101584.97;5020677;27;124497;-69
2021/06/22 07:03:58;;;;;;;9.65;5.40;;;;;;;18.42;55.20;101586.56;5017440;27;118648;-70
2021/06/22 07:06:25;;;;;;;11.05;5.38;;;;;;;18.46;54.85;101596.16;5020070;27;119195;-70
2021/06/22 07:08:52;;;;;;;10.02;5.32;;;;;;;18.48;54.82;101588.88;5017143;27;124678;-71
2021/06/22 07:11:21;;;;;;;11.20;5.00;;;;;;;18.49;54.57;101591.44;5021633;27;122884;-72
2021/06/22 07:13:50;;;;;;;11.77;5.95;;;;;;;18.51;54.76;101591.31;5017220;28;119319;-71
2021/06/22 07:16:17;;;;;;;9.27;5.20;;;;;;;18.55;54.69;101586.63;5012792;27;118105;-72
2021/06/22 07:18:45;;;;;;;9.55;5.55;;;;;;;18.58;54.78;101583.75;5015030;27;123926;-71
2021/06/22 07:21:12;;;;;;;9.80;5.32;;;;;;;18.63;54.61;101582.47;5014687;27;124211;-71
2021/06/22 07:23:40;;;;;;;10.45;5.32;;;;;;;18.71;54.83;101579.28;5019070;28;119306;-71
2021/06/22 07:26:07;;;;;;;10.88;5.10;;;;;;;18.75;54.56;101580.78;5016261;28;119299;-71
2021/06/22 07:28:34;;;;;;;13.20;5.55;;;;;;;18.79;54.40;101576.91;5016707;27;124918;-72
2021/06/22 07:31:06;;;;;;;11.32;5.35;;;;;;;18.81;54.09;101585.75;5017196;28;124312;-72
2021/06/22 07:33:34;;;;;;;9.50;5.20;;;;;;;18.83;54.29;101578.44;5026954;22;119850;-69
2021/06/22 07:36:01;;;;;;;10.57;5.68;;;;;;;18.88;54.22;101580.00;4965604;28;118883;-69
2021/06/22 07:38:29;;;;;;;11.43;5.50;;;;;;;18.92;54.06;101592.22;4979251;28;124671;-69
2021/06/22 07:40:56;;;;;;;11.10;5.93;;;;;;;18.98;54.19;101586.44;4978556;28;124712;-69
2021/06/22 07:43:23;;;;;;;10.00;5.25;;;;;;;19.03;54.01;101589.66;4982724;28;119679;-69
2021/06/22 07:45:50;;;;;;;10.38;5.63;;;;;;;19.09;53.49;101591.91;4979551;28;118157;-70
2021/06/22 07:48:18;;;;;;;11.68;6.18;;;;;;;19.11;53.39;101592.66;4985761;28;124538;-68
2021/06/22 07:50:45;;;;;;;11.65;6.07;;;;;;;19.15;53.28;101599.53;4979963;28;124307;-68
2021/06/22 07:53:13;;;;;;;10.95;6.70;;;;;;;19.18;52.98;101603.88;4977467;28;119017;-68
2021/06/22 07:55:41;;;;;;;13.38;7.00;;;;;;;19.18;52.64;101599.34;4978506;28;119243;-68
2021/06/22 07:58:10;;;;;;;13.43;6.90;;;;;;;19.19;52.07;101606.44;4975898;28;124301;-68
2021/06/22 08:00:42;;;;;;;13.65;7.20;;;;;;;19.17;51.96;101602.97;4968031;28;122871;-70
2021/06/22 08:03:15;;;;;;;11.35;6.88;;;;;;;19.18;51.93;101603.88;4980543;28;117855;-70
2021/06/22 08:05:45;;;;;;;10.80;7.07;;;;;;;19.21;51.85;101604.50;4984186;28;118733;-70
2021/06/22 08:08:14;;;;;;;12.82;7.07;;;;;;;19.25;51.86;101605.16;4986297;28;124938;-69
2021/06/22 08:10:42;;;;;;;13.18;7.78;;;;;;;19.31;52.00;101609.22;4984119;28;123929;-68
2021/06/22 08:13:10;;;;;;;9.60;7.22;;;;;;;19.39;52.00;101612.25;4987556;28;119803;-67
2021/06/22 08:15:38;;;;;;;9.93;7.03;;;;;;;19.52;51.87;101618.47;4989613;28;118898;-68
2021/06/22 08:18:05;;;;;;;12.27;7.75;;;;;;;19.65;51.84;101607.72;4990482;28;124909;-67
2021/06/22 08:20:34;;;;;;;11.30;7.25;;;;;;;19.82;52.30;101609.22;4988207;28;124174;-68
2021/06/22 08:23:03;;;;;;;10.63;7.32;;;;;;;20.01;51.64;101609.59;4978092;28;120112;-69
2021/06/22 08:25:30;;;;;;;12.43;7.40;;;;;;;20.14;50.83;101614.09;4971559;28;120270;-68
2021/06/22 08:27:58;;;;;;;11.13;7.63;;;;;;;20.27;50.71;101614.91;4971465;28;124829;-70
2021/06/22 08:30:27;;;;;;;12.55;7.47;;;;;;;20.45;50.40;101617.22;4970125;28;124270;-70
2021/06/22 08:32:55;;;;;;;12.90;7.70;;;;;;;20.60;50.44;101610.69;4976036;28;118264;-70
2021/06/22 08:35:25;;;;;;;11.35;7.72;;;;;;;20.75;50.00;101604.16;4980085;28;118946;-70
2021/06/22 08:37:53;;;;;;;9.75;7.55;;;;;;;20.87;49.77;101612.28;4978702;28;124364;-70
2021/06/22 08:40:20;;;;;;;12.57;7.80;;;;;;;20.99;49.47;101611.34;4981973;28;123983;-70
2021/06/22 08:42:48;;;;;;;13.05;7.78;;;;;;;21.09;49.42;101606.94;4983343;28;120646;-70
2021/06/22 08:45:17;;;;;;;10.52;7.15;;;;;;;21.20;49.30;101614.22;4981329;28;119342;-70
2021/06/22 08:47:45;;;;;;;12.10;7.57;;;;;;;21.24;48.77;101604.91;4974813;28;124142;-70
2021/06/22 08:50:15;;;;;;;12.80;8.20;;;;;;;21.29;48.80;101612.66;4977945;28;124715;-70
2021/06/22 08:52:43;;;;;;;14.05;8.10;;;;;;;21.35;48.74;101606.75;4975508;28;119315;-70
2021/06/22 08:55:26;;;;;;;12.05;7.22;;;;;;;21.39;48.07;101602.84;4973118;28;119431;-70
2021/06/22 08:57:58;;;;;;;10.77;7.10;;;;;;;21.41;47.98;101603.56;4978413;28;123491;-70
2021/06/22 09:00:25;;;;;;;11.50;7.30;;;;;;;21.46;48.04;101609.50;4987747;28;122878;-70
2021/06/22 09:03:18;;;;;;;10.73;6.78;;;;;;;21.54;47.98;101612.44;4973787;28;119966;-71
2021/06/22 09:05:51;;;;;;;11.20;6.88;;;;;;;21.66;46.95;101609.75;4971042;28;118912;-72
2021/06/22 09:08:27;;;;;;;11.07;7.15;;;;;;;21.70;47.21;101603.13;4970186;28;124249;-71
2021/06/22 09:11:13;;;;;;;8.88;6.18;;;;;;;21.76;46.88;101610.75;4968583;28;124432;-71
2021/06/22 09:14:05;;;;;;;11.00;7.03;;;;;;;21.77;46.75;101607.03;4969640;28;120477;-71
2021/06/22 09:16:33;;;;;;;11.40;6.57;;;;;;;21.80;46.32;101605.97;4968849;28;119831;-72
2021/06/22 09:19:04;;;;;;;13.00;7.07;;;;;;;21.77;45.99;101593.56;4975293;28;124144;-72
2021/06/22 09:21:42;;;;;;;14.15;7.55;;;;;;;21.72;46.08;101603.88;4975391;28;122845;-72
2021/06/22 09:24:18;;;;;;;10.98;7.13;;;;;;;21.70;46.04;101608.50;4979058;28;119509;-72
2021/06/22 09:26:47;;;;;;;12.02;7.63;;;;;;;21.68;46.12;101602.38;4971311;28;119416;-72
2021/06/22 09:29:16;;;;;;;12.93;7.88;;;;;;;21.68;46.16;101597.00;4978222;28;124835;-72
2021/06/22 09:32:06;;;;;;;10.85;7.93;;;;;;;21.70;46.48;101595.03;4982668;28;124174;-72
2021/06/22 09:34:33;;;;;;;9.93;8.05;;;;;;;21.73;46.65;101584.88;4970621;28;119580;-71
2021/06/22 09:37:07;;;;;;;12.65;8.23;;;;;;;21.76;46.21;101589.16;4984712;28;118896;-72
2021/06/22 09:39:37;;;;;;;10.07;7.72;;;;;;;21.75;45.68;101582.03;4975224;28;123009;-72
2021/06/22 09:42:12;;;;;;;10.93;8.68;;;;;;;21.69;45.66;101587.94;4985557;28;124070;-71
2021/06/22 09:44:41;;;;;;;14.55;9.00;;;;;;;21.65;46.12;101581.94;4969126;28;118962;-72
2021/06/22 09:47:10;;;;;;;13.73;8.70;;;;;;;21.66;46.35;101582.78;4983572;28;119876;-72
2021/06/22 09:49:39;;;;;;;13.07;8.15;;;;;;;21.68;46.37;101580.81;4984342;28;123941;-71
2021/06/22 09:52:14;;;;;;;16.83;8.73;;;;;;;21.70;46.37;101578.84;4980388;28;124367;-72
2021/06/22 09:54:48;;;;;;;12.82;8.50;;;;;;;21.73;46.28;101578.63;4984275;28;117310;-71
2021/06/22 09:57:21;;;;;;;9.27;7.40;;;;;;;21.77;45.65;101588.16;4978441;28;119321;-72
2021/06/22 09:59:50;;;;;;;11.20;8.07;;;;;;;21.77;45.61;101580.09;4985480;28;125313;-72
2021/06/22 10:02:22;;;;;;;11.98;8.32;;;;;;;21.78;45.83;101576.41;4974406;28;124753;-72
2021/06/22 10:04:58;;;;;;;13.80;8.95;;;;;;;21.79;45.62;101578.13;4972298;28;118632;-73
2021/06/22 10:07:28;;;;;;;14.65;10.15;;;;;;;21.78;45.81;101576.41;4977250;28;120048;-71
2021/06/22 10:10:02;;;;;;;14.05;9.13;;;;;;;21.80;45.54;101574.44;4975790;28;124420;-72
2021/06/22 10:12:33;;;;;;;13.18;9.68;;;;;;;21.81;45.27;101568.06;4977280;28;124290;-73
2021/06/22 10:15:05;;;;;;;12.70;8.77;;;;;;;21.84;45.20;101570.50;4977051;28;119548;-74
2021/06/22 10:17:35;;;;;;;14.88;10.60;;;;;;;21.88;45.21;101576.53;4974706;28;119480;-73
2021/06/22 10:20:07;;;;;;;16.27;9.65;;;;;;;21.96;45.37;101574.94;4983588;28;124246;-73
2021/06/22 10:22:36;;;;;;;16.05;11.73;;;;;;;22.04;45.57;101576.13;4986064;28;124129;-73
2021/06/22 10:25:06;;;;;;;14.88;12.57;;;;;;;22.13;45.16;101578.06;4984215;28;119653;-73
2021/06/22 10:27:33;;;;;;;16.85;13.90;;;;;;;22.20;45.02;101576.56;4988209;28;119130;-72
2021/06/22 10:30:05;;;;;;;16.45;12.85;;;;;;;22.23;44.39;101584.44;4982206;28;124709;-73
2021/06/22 10:32:33;;;;;;;16.23;13.32;;;;;;;22.29;44.53;101581.25;4984768;28;123513;-73
2021/06/22 10:35:08;;;;;;;13.18;11.05;;;;;;;22.40;45.05;101587.59;4976304;28;118226;-73
2021/06/22 10:37:38;;;;;;;15.73;10.75;;;;;;;22.53;45.14;101589.13;4988366;28;119100;-73
2021/06/22 10:40:20;;;;;;;16.63;11.35;;;;;;;22.64;44.58;101587.38;4992002;28;124628;-73
2021/06/22 10:42:52;;;;;;;16.27;11.98;;;;;;;22.67;44.22;101585.25;4989693;28;124265;-73
2021/06/22 10:45:24;;;;;;;14.82;12.48;;;;;;;22.66;43.92;101585.38;4989502;28;119553;-73
2021/06/22 10:47:59;;;;;;;17.23;12.00;;;;;;;22.59;43.80;101585.06;4981399;28;119095;-73
2021/06/22 10:50:26;;;;;;;15.77;12.50;;;;;;;22.58;43.97;101591.44;4979452;28;124146;-73
2021/06/22 10:53:05;;;;;;;17.13;13.88;;;;;;;22.60;44.23;101584.06;4986928;28;122898;-74
2021/06/22 10:55:44;;;;;;;14.15;11.32;;;;;;;22.65;43.85;101591.78;4984564;28;120296;-74
2021/06/22 10:58:12;;;;;;;14.38;11.35;;;;;;;22.67;43.64;101585.25;4987006;28;120459;-73
2021/06/22 11:00:51;;;;;;;13.30;11.52;;;;;;;22.74;43.86;101586.47;4982712;28;124874;-73
2021/06/22 11:03:28;;;;;;;16.70;12.10;;;;;;;22.80;43.68;101587.78;4977316;28;124393;-73
2021/06/22 11:06:13;;;;;;;15.10;11.82;;;;;;;22.85;43.33;101590.06;4976712;28;120331;-73
2021/06/22 11:08:42;;;;;;;15.27;11.23;;;;;;;22.90;43.21;101596.81;4975751;28;119249;-73
2021/06/22 11:11:09;;;;;;;12.75;10.65;;;;;;;22.99;42.87;101595.16;4994598;28;124336;-74
2021/06/22 11:13:40;;;;;;;14.68;9.88;;;;;;;23.05;42.82;101594.66;4973029;28;123284;-74
2021/06/22 11:16:13;;;;;;;14.23;10.52;;;;;;;23.10;42.79;101608.66;4971880;28;119500;-73
2021/06/22 11:18:55;;;;;;;14.48;10.02;;;;;;;23.17;42.82;101602.69;4978456;28;119598;-73
2021/06/22 11:21:42;;;;;;;13.93;9.43;;;;;;;23.26;42.89;101596.50;4982776;28;124565;-74
2021/06/22 11:24:14;;;;;;;10.55;7.93;;;;;;;23.34;42.59;101591.31;4983463;28;123689;-74